Main page
Satellite images 10-day forecastsClimateMarine weather Cyclones Lightning AirportsFAQ Newsletter About
Weather : Europe Africa North America South America Asia Australia-Oceania Others
Languages Contact

London-Luton, England

Luton Airport

latitude: 51-52N, longitude: 000-22W, elevation: 160 m


METAR: EGGW 280620Z 27015KT CAVOK 04/01 Q1014
TAF: EGGW 280457Z 2806/2906 26012KT 9999 FEW040 PROB30 TEMPO 2809/2818 27015G25KT BECMG 2821/2824 20010KT

Time: 07:46 (06:46 UTC)

Current weather observation

The report was made 26 minutes ago, at 06:20 UTC
Wind 15 kt from the West
Temperature 4°C
Humidity 81%
Pressure 1014 hPa
Visibility 10 km or more
no clouds below 1500 m and no cumulonimbus

Change units

Forecast

The report was made 1 hour and 49 minutes ago, at 04:57 UTC
Forecast valid from 28 at 06 UTC to 29 at 06 UTC
Wind 12 kt from the West
Visibility 10 km or more
Few clouds at a height of 4000 ft
Probability 30% :
Temporary
from 28 at 09 UTC to 28 at 18 UTC
Wind 15 kt from the West with gusts up to 25 kt
Becoming
from 28 at 21 UTC to 28 at 24 UTC
Wind 10 kt from the South/Southwest
The information on this site is subject to a disclaimer
Weather : Europe Africa North America South America Asia Australia-Oceania Others
Satellite images 10-day forecastsClimateMarine weather Cyclones Lightning AirportsFAQ Languages Contact Newsletter About